sensor_id;sensor_type;location;lat;lon;timestamp;P1;durP1;ratioP1;P2;durP2;ratioP2
6203;SDS011;3135;42.602;23.468;2023-02-23T00:00:16;6.50;;;3.90;;
6203;SDS011;3135;42.602;23.468;2023-02-23T00:02:46;9.70;;;4.20;;
6203;SDS011;3135;42.602;23.468;2023-02-23T00:05:15;6.95;;;4.03;;
6203;SDS011;3135;42.602;23.468;2023-02-23T00:07:42;8.30;;;4.50;;
6203;SDS011;3135;42.602;23.468;2023-02-23T00:10:10;8.52;;;5.40;;
6203;SDS011;3135;42.602;23.468;2023-02-23T00:12:41;15.43;;;7.18;;
6203;SDS011;3135;42.602;23.468;2023-02-23T00:15:08;21.65;;;9.88;;
6203;SDS011;3135;42.602;23.468;2023-02-23T00:17:35;16.52;;;9.02;;
6203;SDS011;3135;42.602;23.468;2023-02-23T00:20:04;19.38;;;9.50;;
6203;SDS011;3135;42.602;23.468;2023-02-23T00:22:32;16.38;;;8.05;;
6203;SDS011;3135;42.602;23.468;2023-02-23T00:24:58;15.00;;;7.97;;
6203;SDS011;3135;42.602;23.468;2023-02-23T00:27:24;16.38;;;7.10;;
6203;SDS011;3135;42.602;23.468;2023-02-23T00:29:49;12.77;;;6.72;;
6203;SDS011;3135;42.602;23.468;2023-02-23T00:32:15;14.77;;;6.70;;
6203;SDS011;3135;42.602;23.468;2023-02-23T00:34:44;10.35;;;5.85;;
6203;SDS011;3135;42.602;23.468;2023-02-23T00:37:13;10.18;;;5.18;;
6203;SDS011;3135;42.602;23.468;2023-02-23T00:39:38;13.67;;;6.40;;
6203;SDS011;3135;42.602;23.468;2023-02-23T00:42:04;26.87;;;10.47;;
6203;SDS011;3135;42.602;23.468;2023-02-23T00:44:30;10.38;;;4.70;;
6203;SDS011;3135;42.602;23.468;2023-02-23T00:46:59;9.63;;;5.53;;
6203;SDS011;3135;42.602;23.468;2023-02-23T00:49:25;9.32;;;5.57;;
6203;SDS011;3135;42.602;23.468;2023-02-23T00:51:50;10.88;;;5.70;;
6203;SDS011;3135;42.602;23.468;2023-02-23T00:54:17;10.23;;;4.93;;
6203;SDS011;3135;42.602;23.468;2023-02-23T00:56:44;8.75;;;5.05;;
6203;SDS011;3135;42.602;23.468;2023-02-23T00:59:10;18.20;;;7.93;;
6203;SDS011;3135;42.602;23.468;2023-02-23T01:01:36;12.00;;;5.77;;
6203;SDS011;3135;42.602;23.468;2023-02-23T01:04:02;7.97;;;4.45;;
6203;SDS011;3135;42.602;23.468;2023-02-23T01:06:28;9.23;;;4.43;;
6203;SDS011;3135;42.602;23.468;2023-02-23T01:08:54;7.72;;;4.18;;
6203;SDS011;3135;42.602;23.468;2023-02-23T01:11:22;6.78;;;4.28;;
6203;SDS011;3135;42.602;23.468;2023-02-23T01:13:54;6.70;;;3.90;;
6203;SDS011;3135;42.602;23.468;2023-02-23T01:16:21;6.25;;;3.92;;
6203;SDS011;3135;42.602;23.468;2023-02-23T01:18:52;11.63;;;5.93;;
6203;SDS011;3135;42.602;23.468;2023-02-23T01:21:29;7.60;;;4.83;;
6203;SDS011;3135;42.602;23.468;2023-02-23T01:23:57;6.82;;;4.18;;
6203;SDS011;3135;42.602;23.468;2023-02-23T01:26:27;9.80;;;4.55;;
6203;SDS011;3135;42.602;23.468;2023-02-23T01:29:01;7.10;;;3.72;;
6203;SDS011;3135;42.602;23.468;2023-02-23T01:31:32;5.25;;;3.38;;
6203;SDS011;3135;42.602;23.468;2023-02-23T01:34:00;8.00;;;3.53;;
6203;SDS011;3135;42.602;23.468;2023-02-23T01:36:27;6.97;;;3.35;;
6203;SDS011;3135;42.602;23.468;2023-02-23T01:38:53;12.67;;;6.53;;
6203;SDS011;3135;42.602;23.468;2023-02-23T01:41:24;7.78;;;4.90;;
6203;SDS011;3135;42.602;23.468;2023-02-23T01:46:24;9.93;;;3.83;;
6203;SDS011;3135;42.602;23.468;2023-02-23T01:48:50;6.93;;;4.05;;
6203;SDS011;3135;42.602;23.468;2023-02-23T01:51:20;6.38;;;3.67;;
6203;SDS011;3135;42.602;23.468;2023-02-23T01:53:51;6.68;;;3.80;;
6203;SDS011;3135;42.602;23.468;2023-02-23T01:56:22;6.15;;;3.65;;
6203;SDS011;3135;42.602;23.468;2023-02-23T01:58:54;6.70;;;4.03;;
6203;SDS011;3135;42.602;23.468;2023-02-23T02:01:21;6.50;;;4.72;;
6203;SDS011;3135;42.602;23.468;2023-02-23T02:03:52;9.95;;;4.68;;
6203;SDS011;3135;42.602;23.468;2023-02-23T02:06:21;6.18;;;4.28;;
6203;SDS011;3135;42.602;23.468;2023-02-23T02:08:52;27.92;;;11.57;;
6203;SDS011;3135;42.602;23.468;2023-02-23T02:11:21;12.50;;;6.47;;
6203;SDS011;3135;42.602;23.468;2023-02-23T02:14:08;8.60;;;4.40;;
6203;SDS011;3135;42.602;23.468;2023-02-23T02:16:59;9.82;;;5.57;;
6203;SDS011;3135;42.602;23.468;2023-02-23T02:25:23;8.25;;;5.18;;
6203;SDS011;3135;42.602;23.468;2023-02-23T02:36:26;10.23;;;5.07;;
6203;SDS011;3135;42.602;23.468;2023-02-23T02:47:34;8.10;;;4.53;;
6203;SDS011;3135;42.602;23.468;2023-02-23T02:50:06;13.07;;;6.22;;
6203;SDS011;3135;42.602;23.468;2023-02-23T02:52:38;7.00;;;4.45;;
6203;SDS011;3135;42.602;23.468;2023-02-23T02:55:12;7.53;;;4.50;;
6203;SDS011;3135;42.602;23.468;2023-02-23T02:57:42;9.18;;;5.72;;
6203;SDS011;3135;42.602;23.468;2023-02-23T03:00:16;11.00;;;6.13;;
6203;SDS011;3135;42.602;23.468;2023-02-23T03:03:01;13.45;;;6.70;;
6203;SDS011;3135;42.602;23.468;2023-02-23T03:05:49;10.35;;;5.82;;
6203;SDS011;3135;42.602;23.468;2023-02-23T03:11:36;8.00;;;3.70;;
6203;SDS011;3135;42.602;23.468;2023-02-23T03:14:27;5.57;;;3.72;;
6203;SDS011;3135;42.602;23.468;2023-02-23T03:20:27;9.85;;;4.10;;
6203;SDS011;3135;42.602;23.468;2023-02-23T03:32:24;6.35;;;4.20;;
6203;SDS011;3135;42.602;23.468;2023-02-23T03:35:18;9.77;;;5.55;;
6203;SDS011;3135;42.602;23.468;2023-02-23T03:38:23;8.00;;;4.57;;
6203;SDS011;3135;42.602;23.468;2023-02-23T03:41:08;8.27;;;4.30;;
6203;SDS011;3135;42.602;23.468;2023-02-23T03:44:01;6.10;;;4.40;;
6203;SDS011;3135;42.602;23.468;2023-02-23T03:46:50;8.85;;;5.05;;
6203;SDS011;3135;42.602;23.468;2023-02-23T03:49:36;8.38;;;5.05;;
6203;SDS011;3135;42.602;23.468;2023-02-23T03:52:25;7.60;;;4.70;;
6203;SDS011;3135;42.602;23.468;2023-02-23T03:55:20;11.07;;;6.00;;
6203;SDS011;3135;42.602;23.468;2023-02-23T03:58:07;9.43;;;5.13;;
6203;SDS011;3135;42.602;23.468;2023-02-23T04:00:57;9.55;;;5.50;;
6203;SDS011;3135;42.602;23.468;2023-02-23T04:03:44;8.93;;;5.18;;
6203;SDS011;3135;42.602;23.468;2023-02-23T04:06:33;9.97;;;5.10;;
6203;SDS011;3135;42.602;23.468;2023-02-23T04:09:20;9.48;;;5.57;;
6203;SDS011;3135;42.602;23.468;2023-02-23T04:12:12;10.57;;;5.17;;
6203;SDS011;3135;42.602;23.468;2023-02-23T04:15:06;10.27;;;5.10;;
6203;SDS011;3135;42.602;23.468;2023-02-23T04:17:36;9.15;;;5.43;;
6203;SDS011;3135;42.602;23.468;2023-02-23T04:20:02;23.08;;;10.18;;
6203;SDS011;3135;42.602;23.468;2023-02-23T04:22:28;15.17;;;8.03;;
6203;SDS011;3135;42.602;23.468;2023-02-23T04:24:54;12.85;;;7.30;;
6203;SDS011;3135;42.602;23.468;2023-02-23T04:27:20;21.17;;;9.48;;
6203;SDS011;3135;42.602;23.468;2023-02-23T04:29:45;25.03;;;10.43;;
6203;SDS011;3135;42.602;23.468;2023-02-23T04:32:11;16.80;;;7.63;;
6203;SDS011;3135;42.602;23.468;2023-02-23T04:34:39;13.23;;;6.40;;
6203;SDS011;3135;42.602;23.468;2023-02-23T04:37:05;16.10;;;7.00;;
6203;SDS011;3135;42.602;23.468;2023-02-23T04:39:30;15.98;;;7.60;;
6203;SDS011;3135;42.602;23.468;2023-02-23T04:41:55;21.00;;;11.07;;
6203;SDS011;3135;42.602;23.468;2023-02-23T04:44:21;19.60;;;10.00;;
6203;SDS011;3135;42.602;23.468;2023-02-23T04:46:46;19.13;;;9.57;;
6203;SDS011;3135;42.602;23.468;2023-02-23T04:49:12;15.80;;;8.63;;
6203;SDS011;3135;42.602;23.468;2023-02-23T04:51:37;12.63;;;7.20;;
6203;SDS011;3135;42.602;23.468;2023-02-23T04:54:03;13.70;;;6.57;;
6203;SDS011;3135;42.602;23.468;2023-02-23T04:56:29;21.17;;;10.38;;
6203;SDS011;3135;42.602;23.468;2023-02-23T04:58:55;18.17;;;8.63;;
6203;SDS011;3135;42.602;23.468;2023-02-23T05:01:20;14.43;;;7.30;;
6203;SDS011;3135;42.602;23.468;2023-02-23T05:03:48;12.25;;;5.75;;
6203;SDS011;3135;42.602;23.468;2023-02-23T05:06:15;11.50;;;6.27;;
6203;SDS011;3135;42.602;23.468;2023-02-23T05:08:41;11.73;;;6.68;;
6203;SDS011;3135;42.602;23.468;2023-02-23T05:11:08;11.70;;;6.78;;
6203;SDS011;3135;42.602;23.468;2023-02-23T05:13:33;9.68;;;5.45;;
6203;SDS011;3135;42.602;23.468;2023-02-23T05:15:59;9.63;;;6.00;;
6203;SDS011;3135;42.602;23.468;2023-02-23T05:18:25;10.57;;;5.70;;
6203;SDS011;3135;42.602;23.468;2023-02-23T05:20:53;9.82;;;5.75;;
6203;SDS011;3135;42.602;23.468;2023-02-23T05:23:25;13.45;;;6.57;;
6203;SDS011;3135;42.602;23.468;2023-02-23T05:25:50;10.83;;;6.10;;
6203;SDS011;3135;42.602;23.468;2023-02-23T05:28:16;11.83;;;6.30;;
6203;SDS011;3135;42.602;23.468;2023-02-23T05:30:41;13.93;;;6.10;;
6203;SDS011;3135;42.602;23.468;2023-02-23T05:33:07;9.63;;;6.40;;
6203;SDS011;3135;42.602;23.468;2023-02-23T05:35:32;13.27;;;6.70;;
6203;SDS011;3135;42.602;23.468;2023-02-23T05:37:58;15.83;;;8.90;;
6203;SDS011;3135;42.602;23.468;2023-02-23T05:40:23;25.20;;;13.90;;
6203;SDS011;3135;42.602;23.468;2023-02-23T05:42:49;26.43;;;15.57;;
6203;SDS011;3135;42.602;23.468;2023-02-23T05:45:14;17.33;;;9.30;;
6203;SDS011;3135;42.602;23.468;2023-02-23T05:47:40;20.27;;;12.50;;
6203;SDS011;3135;42.602;23.468;2023-02-23T05:50:06;23.27;;;12.83;;
6203;SDS011;3135;42.602;23.468;2023-02-23T05:52:36;15.80;;;8.43;;
6203;SDS011;3135;42.602;23.468;2023-02-23T05:55:06;15.02;;;8.60;;
6203;SDS011;3135;42.602;23.468;2023-02-23T05:57:33;14.70;;;7.20;;
6203;SDS011;3135;42.602;23.468;2023-02-23T05:59:58;12.80;;;6.83;;
6203;SDS011;3135;42.602;23.468;2023-02-23T06:02:24;12.73;;;6.60;;
6203;SDS011;3135;42.602;23.468;2023-02-23T06:04:49;11.00;;;6.15;;
6203;SDS011;3135;42.602;23.468;2023-02-23T06:07:15;21.48;;;9.48;;
6203;SDS011;3135;42.602;23.468;2023-02-23T06:09:40;19.50;;;8.93;;
6203;SDS011;3135;42.602;23.468;2023-02-23T06:12:06;17.33;;;8.67;;
6203;SDS011;3135;42.602;23.468;2023-02-23T06:14:32;18.23;;;8.85;;
6203;SDS011;3135;42.602;23.468;2023-02-23T06:16:57;37.30;;;15.67;;
6203;SDS011;3135;42.602;23.468;2023-02-23T06:19:24;107.97;;;29.80;;
6203;SDS011;3135;42.602;23.468;2023-02-23T06:21:49;128.60;;;35.33;;
6203;SDS011;3135;42.602;23.468;2023-02-23T06:24:16;122.03;;;34.20;;
6203;SDS011;3135;42.602;23.468;2023-02-23T06:26:43;102.15;;;29.98;;
6203;SDS011;3135;42.602;23.468;2023-02-23T06:29:09;80.35;;;24.52;;
6203;SDS011;3135;42.602;23.468;2023-02-23T06:31:36;66.03;;;23.43;;
6203;SDS011;3135;42.602;23.468;2023-02-23T06:34:02;80.40;;;25.65;;
6203;SDS011;3135;42.602;23.468;2023-02-23T06:36:27;52.22;;;20.05;;
6203;SDS011;3135;42.602;23.468;2023-02-23T06:38:56;47.13;;;18.57;;
6203;SDS011;3135;42.602;23.468;2023-02-23T06:41:22;25.98;;;11.32;;
6203;SDS011;3135;42.602;23.468;2023-02-23T06:43:48;25.60;;;11.63;;
6203;SDS011;3135;42.602;23.468;2023-02-23T06:46:14;27.13;;;11.48;;
6203;SDS011;3135;42.602;23.468;2023-02-23T06:48:40;32.10;;;14.15;;
6203;SDS011;3135;42.602;23.468;2023-02-23T06:51:06;45.70;;;17.20;;
6203;SDS011;3135;42.602;23.468;2023-02-23T06:53:31;45.53;;;18.00;;
6203;SDS011;3135;42.602;23.468;2023-02-23T06:55:57;32.22;;;13.15;;
6203;SDS011;3135;42.602;23.468;2023-02-23T06:58:23;26.55;;;11.43;;
6203;SDS011;3135;42.602;23.468;2023-02-23T07:00:49;34.05;;;13.45;;
6203;SDS011;3135;42.602;23.468;2023-02-23T07:03:15;38.13;;;14.48;;
6203;SDS011;3135;42.602;23.468;2023-02-23T07:05:40;26.60;;;12.15;;
6203;SDS011;3135;42.602;23.468;2023-02-23T07:08:06;25.03;;;11.13;;
6203;SDS011;3135;42.602;23.468;2023-02-23T07:10:32;25.83;;;10.60;;
6203;SDS011;3135;42.602;23.468;2023-02-23T07:12:57;21.67;;;9.77;;
6203;SDS011;3135;42.602;23.468;2023-02-23T07:15:23;24.27;;;10.48;;
6203;SDS011;3135;42.602;23.468;2023-02-23T07:17:49;18.83;;;9.43;;
6203;SDS011;3135;42.602;23.468;2023-02-23T07:20:16;17.95;;;8.82;;
6203;SDS011;3135;42.602;23.468;2023-02-23T07:22:43;17.83;;;8.65;;
6203;SDS011;3135;42.602;23.468;2023-02-23T07:25:09;17.00;;;8.17;;
6203;SDS011;3135;42.602;23.468;2023-02-23T07:27:34;18.23;;;8.73;;
6203;SDS011;3135;42.602;23.468;2023-02-23T07:30:00;15.67;;;8.50;;
6203;SDS011;3135;42.602;23.468;2023-02-23T07:32:28;14.50;;;7.63;;
6203;SDS011;3135;42.602;23.468;2023-02-23T07:34:54;18.70;;;8.40;;
6203;SDS011;3135;42.602;23.468;2023-02-23T07:37:19;19.47;;;8.53;;
6203;SDS011;3135;42.602;23.468;2023-02-23T07:39:46;14.98;;;8.55;;
6203;SDS011;3135;42.602;23.468;2023-02-23T07:42:11;17.57;;;8.57;;
6203;SDS011;3135;42.602;23.468;2023-02-23T07:44:37;17.13;;;8.55;;
6203;SDS011;3135;42.602;23.468;2023-02-23T07:47:04;17.02;;;8.98;;
6203;SDS011;3135;42.602;23.468;2023-02-23T07:49:30;16.27;;;8.55;;
6203;SDS011;3135;42.602;23.468;2023-02-23T07:51:56;18.42;;;9.30;;
6203;SDS011;3135;42.602;23.468;2023-02-23T07:54:22;18.08;;;9.00;;
6203;SDS011;3135;42.602;23.468;2023-02-23T07:56:49;19.92;;;9.57;;
6203;SDS011;3135;42.602;23.468;2023-02-23T07:59:15;20.45;;;9.90;;
6203;SDS011;3135;42.602;23.468;2023-02-23T08:01:41;15.77;;;9.07;;
6203;SDS011;3135;42.602;23.468;2023-02-23T08:04:07;18.83;;;9.52;;
6203;SDS011;3135;42.602;23.468;2023-02-23T08:06:33;16.43;;;9.20;;
6203;SDS011;3135;42.602;23.468;2023-02-23T08:08:58;17.87;;;8.93;;
6203;SDS011;3135;42.602;23.468;2023-02-23T08:11:27;16.85;;;8.98;;
6203;SDS011;3135;42.602;23.468;2023-02-23T08:13:55;17.33;;;9.35;;
6203;SDS011;3135;42.602;23.468;2023-02-23T08:16:28;15.52;;;8.75;;
6203;SDS011;3135;42.602;23.468;2023-02-23T08:18:58;17.77;;;9.20;;
6203;SDS011;3135;42.602;23.468;2023-02-23T08:21:25;17.50;;;8.73;;
6203;SDS011;3135;42.602;23.468;2023-02-23T08:23:52;18.20;;;9.13;;
6203;SDS011;3135;42.602;23.468;2023-02-23T08:26:17;16.40;;;8.60;;
6203;SDS011;3135;42.602;23.468;2023-02-23T08:28:43;17.70;;;8.67;;
6203;SDS011;3135;42.602;23.468;2023-02-23T08:31:11;16.17;;;8.60;;
6203;SDS011;3135;42.602;23.468;2023-02-23T08:33:38;17.20;;;8.73;;
6203;SDS011;3135;42.602;23.468;2023-02-23T08:36:04;16.13;;;8.73;;
6203;SDS011;3135;42.602;23.468;2023-02-23T08:38:30;16.40;;;9.18;;
6203;SDS011;3135;42.602;23.468;2023-02-23T08:40:59;17.80;;;8.77;;
6203;SDS011;3135;42.602;23.468;2023-02-23T08:43:25;19.00;;;8.32;;
6203;SDS011;3135;42.602;23.468;2023-02-23T08:45:51;15.90;;;8.40;;
6203;SDS011;3135;42.602;23.468;2023-02-23T08:48:17;16.57;;;8.70;;
6203;SDS011;3135;42.602;23.468;2023-02-23T08:50:42;21.57;;;8.90;;
6203;SDS011;3135;42.602;23.468;2023-02-23T08:53:07;18.90;;;9.47;;
6203;SDS011;3135;42.602;23.468;2023-02-23T08:55:33;21.30;;;8.73;;
6203;SDS011;3135;42.602;23.468;2023-02-23T08:57:59;19.30;;;9.10;;
6203;SDS011;3135;42.602;23.468;2023-02-23T09:00:25;14.93;;;8.50;;
6203;SDS011;3135;42.602;23.468;2023-02-23T09:02:50;14.57;;;7.72;;
6203;SDS011;3135;42.602;23.468;2023-02-23T09:05:16;18.63;;;8.55;;
6203;SDS011;3135;42.602;23.468;2023-02-23T09:07:42;18.92;;;7.80;;
6203;SDS011;3135;42.602;23.468;2023-02-23T09:10:13;16.10;;;8.07;;
6203;SDS011;3135;42.602;23.468;2023-02-23T09:12:41;15.93;;;7.63;;
6203;SDS011;3135;42.602;23.468;2023-02-23T09:15:07;17.52;;;7.80;;
6203;SDS011;3135;42.602;23.468;2023-02-23T09:17:33;14.82;;;7.43;;
6203;SDS011;3135;42.602;23.468;2023-02-23T09:19:58;14.43;;;7.20;;
6203;SDS011;3135;42.602;23.468;2023-02-23T09:22:24;14.57;;;7.40;;
6203;SDS011;3135;42.602;23.468;2023-02-23T09:24:50;13.70;;;7.30;;
6203;SDS011;3135;42.602;23.468;2023-02-23T09:27:15;18.10;;;7.40;;
6203;SDS011;3135;42.602;23.468;2023-02-23T09:29:40;13.70;;;7.20;;
6203;SDS011;3135;42.602;23.468;2023-02-23T09:32:07;13.90;;;7.18;;
6203;SDS011;3135;42.602;23.468;2023-02-23T09:34:32;13.80;;;6.80;;
6203;SDS011;3135;42.602;23.468;2023-02-23T09:36:59;13.73;;;7.20;;
6203;SDS011;3135;42.602;23.468;2023-02-23T09:39:28;14.20;;;7.18;;
6203;SDS011;3135;42.602;23.468;2023-02-23T09:47:08;11.73;;;6.60;;
6203;SDS011;3135;42.602;23.468;2023-02-23T09:49:42;10.52;;;6.63;;
6203;SDS011;3135;42.602;23.468;2023-02-23T09:52:14;13.57;;;6.97;;
6203;SDS011;3135;42.602;23.468;2023-02-23T09:54:42;13.88;;;6.88;;
6203;SDS011;3135;42.602;23.468;2023-02-23T09:57:13;14.70;;;7.60;;
6203;SDS011;3135;42.602;23.468;2023-02-23T09:59:42;12.30;;;7.03;;
6203;SDS011;3135;42.602;23.468;2023-02-23T10:05:04;12.57;;;6.82;;
6203;SDS011;3135;42.602;23.468;2023-02-23T10:07:43;13.32;;;7.20;;
6203;SDS011;3135;42.602;23.468;2023-02-23T10:16:28;12.43;;;7.10;;
6203;SDS011;3135;42.602;23.468;2023-02-23T10:19:05;14.55;;;6.80;;
6203;SDS011;3135;42.602;23.468;2023-02-23T10:21:42;11.93;;;7.10;;
6203;SDS011;3135;42.602;23.468;2023-02-23T10:24:13;12.55;;;7.07;;
6203;SDS011;3135;42.602;23.468;2023-02-23T10:29:31;13.38;;;7.07;;
6203;SDS011;3135;42.602;23.468;2023-02-23T10:34:48;13.10;;;7.10;;
6203;SDS011;3135;42.602;23.468;2023-02-23T10:37:19;13.93;;;7.50;;
6203;SDS011;3135;42.602;23.468;2023-02-23T10:39:45;11.07;;;7.10;;
6203;SDS011;3135;42.602;23.468;2023-02-23T10:42:14;10.83;;;6.90;;
6203;SDS011;3135;42.602;23.468;2023-02-23T10:44:44;13.18;;;7.07;;
6203;SDS011;3135;42.602;23.468;2023-02-23T10:47:12;13.47;;;6.90;;
6203;SDS011;3135;42.602;23.468;2023-02-23T10:49:51;23.52;;;10.25;;
6203;SDS011;3135;42.602;23.468;2023-02-23T10:55:07;12.65;;;7.28;;
6203;SDS011;3135;42.602;23.468;2023-02-23T10:57:49;13.88;;;7.22;;
6203;SDS011;3135;42.602;23.468;2023-02-23T11:00:25;10.57;;;7.10;;
6203;SDS011;3135;42.602;23.468;2023-02-23T11:02:55;11.18;;;6.90;;
6203;SDS011;3135;42.602;23.468;2023-02-23T11:05:43;15.13;;;7.15;;
6203;SDS011;3135;42.602;23.468;2023-02-23T11:08:22;11.47;;;6.73;;
6203;SDS011;3135;42.602;23.468;2023-02-23T11:13:22;13.15;;;6.78;;
6203;SDS011;3135;42.602;23.468;2023-02-23T11:15:58;12.23;;;6.95;;
6203;SDS011;3135;42.602;23.468;2023-02-23T11:18:31;11.38;;;6.78;;
6203;SDS011;3135;42.602;23.468;2023-02-23T11:20:57;14.88;;;6.95;;
6203;SDS011;3135;42.602;23.468;2023-02-23T11:23:24;13.07;;;6.63;;
6203;SDS011;3135;42.602;23.468;2023-02-23T11:25:54;11.65;;;6.68;;
6203;SDS011;3135;42.602;23.468;2023-02-23T11:28:40;11.13;;;6.57;;
6203;SDS011;3135;42.602;23.468;2023-02-23T11:31:14;10.95;;;6.85;;
6203;SDS011;3135;42.602;23.468;2023-02-23T11:33:43;10.13;;;6.22;;
6203;SDS011;3135;42.602;23.468;2023-02-23T11:38:39;11.70;;;6.13;;
6203;SDS011;3135;42.602;23.468;2023-02-23T11:41:06;12.20;;;6.93;;
6203;SDS011;3135;42.602;23.468;2023-02-23T11:43:49;12.63;;;6.65;;
6203;SDS011;3135;42.602;23.468;2023-02-23T11:46:16;15.98;;;8.00;;
6203;SDS011;3135;42.602;23.468;2023-02-23T11:51:30;9.57;;;6.00;;
6203;SDS011;3135;42.602;23.468;2023-02-23T11:53:59;9.30;;;5.72;;
6203;SDS011;3135;42.602;23.468;2023-02-23T11:56:27;8.40;;;5.90;;
6203;SDS011;3135;42.602;23.468;2023-02-23T11:59:02;9.35;;;5.80;;
6203;SDS011;3135;42.602;23.468;2023-02-23T12:04:05;10.15;;;5.60;;
6203;SDS011;3135;42.602;23.468;2023-02-23T12:06:37;16.75;;;7.65;;
6203;SDS011;3135;42.602;23.468;2023-02-23T12:11:50;7.07;;;4.70;;
6203;SDS011;3135;42.602;23.468;2023-02-23T12:14:32;9.82;;;5.30;;
6203;SDS011;3135;42.602;23.468;2023-02-23T12:17:05;21.05;;;5.43;;
6203;SDS011;3135;42.602;23.468;2023-02-23T12:19:43;8.13;;;4.83;;
6203;SDS011;3135;42.602;23.468;2023-02-23T12:22:14;7.30;;;5.03;;
6203;SDS011;3135;42.602;23.468;2023-02-23T12:27:20;8.13;;;5.57;;
6203;SDS011;3135;42.602;23.468;2023-02-23T12:32:23;7.43;;;4.80;;
6203;SDS011;3135;42.602;23.468;2023-02-23T12:35:12;11.00;;;6.00;;
6203;SDS011;3135;42.602;23.468;2023-02-23T12:37:44;8.88;;;5.07;;
6203;SDS011;3135;42.602;23.468;2023-02-23T12:40:32;21.83;;;5.78;;
6203;SDS011;3135;42.602;23.468;2023-02-23T12:45:53;6.97;;;4.72;;
6203;SDS011;3135;42.602;23.468;2023-02-23T12:48:32;6.60;;;4.50;;
6203;SDS011;3135;42.602;23.468;2023-02-23T12:51:18;9.07;;;4.75;;
6203;SDS011;3135;42.602;23.468;2023-02-23T12:53:56;9.85;;;5.25;;
6203;SDS011;3135;42.602;23.468;2023-02-23T13:01:57;7.47;;;4.27;;
6203;SDS011;3135;42.602;23.468;2023-02-23T13:04:37;5.95;;;4.38;;
6203;SDS011;3135;42.602;23.468;2023-02-23T13:07:26;9.75;;;4.80;;
6203;SDS011;3135;42.602;23.468;2023-02-23T13:10:09;7.22;;;4.90;;
6203;SDS011;3135;42.602;23.468;2023-02-23T13:18:23;10.82;;;5.85;;
6203;SDS011;3135;42.602;23.468;2023-02-23T13:24:21;9.20;;;5.28;;
6203;SDS011;3135;42.602;23.468;2023-02-23T13:27:05;7.50;;;4.72;;
6203;SDS011;3135;42.602;23.468;2023-02-23T13:29:40;6.55;;;4.22;;
6203;SDS011;3135;42.602;23.468;2023-02-23T13:32:10;8.43;;;4.28;;
6203;SDS011;3135;42.602;23.468;2023-02-23T13:34:43;9.27;;;5.78;;
6203;SDS011;3135;42.602;23.468;2023-02-23T13:37:16;7.47;;;4.32;;
6203;SDS011;3135;42.602;23.468;2023-02-23T13:40:00;5.60;;;3.77;;
6203;SDS011;3135;42.602;23.468;2023-02-23T13:45:18;6.60;;;3.83;;
6203;SDS011;3135;42.602;23.468;2023-02-23T13:53:58;3.87;;;3.10;;
6203;SDS011;3135;42.602;23.468;2023-02-23T13:56:25;4.03;;;3.33;;
6203;SDS011;3135;42.602;23.468;2023-02-23T13:59:04;4.00;;;3.60;;
6203;SDS011;3135;42.602;23.468;2023-02-23T14:01:41;5.03;;;3.40;;
6203;SDS011;3135;42.602;23.468;2023-02-23T14:06:56;5.45;;;3.65;;
6203;SDS011;3135;42.602;23.468;2023-02-23T14:09:32;7.10;;;3.80;;
6203;SDS011;3135;42.602;23.468;2023-02-23T14:12:15;7.00;;;3.73;;
6203;SDS011;3135;42.602;23.468;2023-02-23T14:14:49;5.07;;;3.88;;
6203;SDS011;3135;42.602;23.468;2023-02-23T14:22:13;7.88;;;4.72;;
6203;SDS011;3135;42.602;23.468;2023-02-23T14:24:42;5.47;;;4.03;;
6203;SDS011;3135;42.602;23.468;2023-02-23T14:27:18;4.87;;;3.57;;
6203;SDS011;3135;42.602;23.468;2023-02-23T14:32:38;9.75;;;6.10;;
6203;SDS011;3135;42.602;23.468;2023-02-23T14:35:03;11.23;;;6.53;;
6203;SDS011;3135;42.602;23.468;2023-02-23T14:37:39;6.68;;;5.38;;
6203;SDS011;3135;42.602;23.468;2023-02-23T14:40:11;7.47;;;5.25;;
6203;SDS011;3135;42.602;23.468;2023-02-23T14:42:41;6.35;;;3.90;;
6203;SDS011;3135;42.602;23.468;2023-02-23T14:45:16;6.70;;;3.73;;
6203;SDS011;3135;42.602;23.468;2023-02-23T14:48:04;4.45;;;3.80;;
6203;SDS011;3135;42.602;23.468;2023-02-23T14:50:32;6.50;;;3.90;;
6203;SDS011;3135;42.602;23.468;2023-02-23T14:53:00;7.10;;;4.00;;
6203;SDS011;3135;42.602;23.468;2023-02-23T14:55:32;5.57;;;4.18;;
6203;SDS011;3135;42.602;23.468;2023-02-23T14:58:17;5.20;;;4.25;;
6203;SDS011;3135;42.602;23.468;2023-02-23T15:00:46;7.60;;;4.57;;
6203;SDS011;3135;42.602;23.468;2023-02-23T15:03:13;9.80;;;5.05;;
6203;SDS011;3135;42.602;23.468;2023-02-23T15:05:42;6.70;;;4.60;;
6203;SDS011;3135;42.602;23.468;2023-02-23T15:08:16;9.07;;;5.65;;
6203;SDS011;3135;42.602;23.468;2023-02-23T15:10:45;9.30;;;5.35;;
6203;SDS011;3135;42.602;23.468;2023-02-23T15:13:19;7.53;;;5.20;;
6203;SDS011;3135;42.602;23.468;2023-02-23T15:15:52;9.32;;;5.60;;
6203;SDS011;3135;42.602;23.468;2023-02-23T15:18:32;12.27;;;5.97;;
6203;SDS011;3135;42.602;23.468;2023-02-23T15:21:09;11.47;;;6.73;;
6203;SDS011;3135;42.602;23.468;2023-02-23T15:23:38;8.13;;;5.40;;
6203;SDS011;3135;42.602;23.468;2023-02-23T15:31:35;8.40;;;5.15;;
6203;SDS011;3135;42.602;23.468;2023-02-23T15:34:03;10.00;;;5.32;;
6203;SDS011;3135;42.602;23.468;2023-02-23T15:36:29;11.40;;;5.60;;
6203;SDS011;3135;42.602;23.468;2023-02-23T15:38:58;7.45;;;4.85;;
6203;SDS011;3135;42.602;23.468;2023-02-23T15:41:37;9.98;;;5.38;;
6203;SDS011;3135;42.602;23.468;2023-02-23T15:46:41;10.10;;;5.15;;
6203;SDS011;3135;42.602;23.468;2023-02-23T15:49:10;7.35;;;5.05;;
6203;SDS011;3135;42.602;23.468;2023-02-23T15:51:39;10.35;;;4.88;;
6203;SDS011;3135;42.602;23.468;2023-02-23T15:55:14;10.88;;;5.00;;
6203;SDS011;3135;42.602;23.468;2023-02-23T15:57:16;10.70;;;4.70;;
6203;SDS011;3135;42.602;23.468;2023-02-23T15:59:45;8.13;;;4.60;;
6203;SDS011;3135;42.602;23.468;2023-02-23T16:02:16;9.47;;;5.03;;
6203;SDS011;3135;42.602;23.468;2023-02-23T16:04:44;8.60;;;5.28;;
6203;SDS011;3135;42.602;23.468;2023-02-23T16:07:26;8.85;;;4.65;;
6203;SDS011;3135;42.602;23.468;2023-02-23T16:12:48;5.15;;;4.03;;
6203;SDS011;3135;42.602;23.468;2023-02-23T16:15:26;8.67;;;4.37;;
6203;SDS011;3135;42.602;23.468;2023-02-23T16:20:36;11.27;;;4.55;;
6203;SDS011;3135;42.602;23.468;2023-02-23T16:23:06;8.37;;;4.43;;
6203;SDS011;3135;42.602;23.468;2023-02-23T16:25:39;8.02;;;4.18;;
6203;SDS011;3135;42.602;23.468;2023-02-23T16:28:08;7.57;;;4.32;;
6203;SDS011;3135;42.602;23.468;2023-02-23T16:30:40;6.50;;;4.30;;
6203;SDS011;3135;42.602;23.468;2023-02-23T16:35:36;12.70;;;6.37;;
6203;SDS011;3135;42.602;23.468;2023-02-23T16:38:12;9.25;;;4.65;;
6203;SDS011;3135;42.602;23.468;2023-02-23T16:40:38;8.73;;;4.35;;
6203;SDS011;3135;42.602;23.468;2023-02-23T16:43:05;7.03;;;4.93;;
6203;SDS011;3135;42.602;23.468;2023-02-23T16:45:30;9.90;;;4.70;;
6203;SDS011;3135;42.602;23.468;2023-02-23T16:47:55;8.03;;;4.73;;
6203;SDS011;3135;42.602;23.468;2023-02-23T16:50:27;7.40;;;4.60;;
6203;SDS011;3135;42.602;23.468;2023-02-23T16:52:53;7.60;;;4.57;;
6203;SDS011;3135;42.602;23.468;2023-02-23T16:55:23;9.27;;;4.87;;
6203;SDS011;3135;42.602;23.468;2023-02-23T16:57:50;12.25;;;5.20;;
6203;SDS011;3135;42.602;23.468;2023-02-23T17:00:20;9.70;;;5.40;;
6203;SDS011;3135;42.602;23.468;2023-02-23T17:02:48;8.77;;;5.20;;
6203;SDS011;3135;42.602;23.468;2023-02-23T17:05:15;8.43;;;5.10;;
6203;SDS011;3135;42.602;23.468;2023-02-23T17:07:43;12.48;;;5.60;;
6203;SDS011;3135;42.602;23.468;2023-02-23T17:10:13;13.53;;;5.70;;
6203;SDS011;3135;42.602;23.468;2023-02-23T17:12:49;10.73;;;5.80;;
6203;SDS011;3135;42.602;23.468;2023-02-23T17:15:23;12.33;;;6.00;;
6203;SDS011;3135;42.602;23.468;2023-02-23T17:17:51;12.95;;;6.68;;
6203;SDS011;3135;42.602;23.468;2023-02-23T17:20:20;15.95;;;9.05;;
6203;SDS011;3135;42.602;23.468;2023-02-23T17:22:47;14.00;;;6.95;;
6203;SDS011;3135;42.602;23.468;2023-02-23T17:25:13;15.35;;;7.50;;